Aylett, Virginia
Current Conditions -  °F | °C
As of 1:15 PM on Monday 22 Dec 2014 (Local Time) from KXSA Reporting Station
Drizzle Drizzle  
Wind Chill:   Ceiling: 400
Heat Index:   Visibility: 2mi
Dew Point:   Wind: 5mph
Humidity: 88%   Direction: 360°N
Pressure: 30.17"   Gusts: NA
Location:  37.79°N, 77.11°W
Report Text: KXSA 221815Z AUTO 36004KT 2SM DZ OVC004 03/02 A3017 RMK AO2 T00330015
Loading
Personal Weather Stations






























Interactive Weather Map New forecast layout! Learn more

10-Day Weather Forecast

Advertisements
Track Severe Weather on mobile